Jupiter Spirit — A8ZC2 — position and weather

sailwx.info

Track history (hours):
 
Tides and Currents Weather Stations Pressure Air Temp Water Temp Dewpoint Dewpoint Depression Visibility Wind Speed Wind Dir Waves Ship Positions

Jupiter Spirit

Last reported at 2017-Jul-17 08:26 UTC. Time now 2017-Jul-24 00:30 UTC.
Position N 35°33' W 127°45'.

Length 183 m; draft 7.6 m.

Type: Cargo ship. MMSI: 636015173.

Date/timePositionNaut miles runAvg speedWind from/ knotsBaromVisibWave heightAir tempDewpointWater temp
2017-Jul-17 08:26N 35°33' W 127°45'717.1
2017-Jul-17 08:00N 35°29' W 127°38'917.0
2017-Jul-17 07:30N 35°24' W 127°29'816.9
2017-Jul-17 07:00N 35°19' W 127°21'2117.0
2017-Jul-17 05:47N 35°08' W 126°59'516.7
2017-Jul-17 05:30N 35°05' W 126°55'1416.7
2017-Jul-17 04:41N 34°57' W 126°41'316.5
2017-Jul-17 04:30N 34°56' W 126°38'816.7
2017-Jul-17 04:00N 34°51' W 126°30'816.5
2017-Jul-17 03:30N 34°47' W 126°21'1016.2
2017-Jul-17 02:52N 34°41' W 126°11'616.4
2017-Jul-17 02:30N 34°38' W 126°05'816.3
2017-Jul-17 02:00N 34°33' W 125°57'816.4
2017-Jul-17 01:30N 34°28' W 125°48'816.3
2017-Jul-17 01:00N 34°23' W 125°40'816.4
2017-Jul-17 00:30N 34°19' W 125°32'816.3
2017-Jul-17 00:00N 34°14' W 125°25'816.7
2017-Jul-16 23:31N 34°09' W 125°16'816.7
2017-Jul-16 23:00N 34°04' W 125°08'816.6
2017-Jul-16 22:30N 33°59' W 124°60'817.0
2017-Jul-16 22:00N 33°55' W 124°51'816.9
2017-Jul-16 21:31N 33°51' W 124°42'917.0
2017-Jul-16 21:01N 33°48' W 124°33'817.0
2017-Jul-16 20:30N 33°45' W 124°23'816.9
2017-Jul-16 20:00N 33°43' W 124°13'816.9
2017-Jul-16 19:30N 33°42' W 124°03'817.0
2017-Jul-16 19:00N 33°42' W 123°53'817.0
2017-Jul-16 18:30N 33°42' W 123°43'817.0
2017-Jul-16 18:00N 33°41' W 123°33'917.3
2017-Jul-16 17:30N 33°41' W 123°22'917.2
2017-Jul-16 17:00N 33°41' W 123°12'817.0
2017-Jul-16 16:30N 33°41' W 123°02'917.2
2017-Jul-16 16:01N 33°41' W 122°51'816.7
2017-Jul-16 15:30N 33°41' W 122°41'816.7
2017-Jul-16 15:01N 33°40' W 122°31'816.7
2017-Jul-16 14:31N 33°40' W 122°21'816.8
2017-Jul-16 14:01N 33°40' W 122°11'816.6
2017-Jul-16 13:30N 33°41' W 122°01'816.7
2017-Jul-16 13:00N 33°40' W 121°51'917.2
2017-Jul-16 12:30N 33°40' W 121°41'917.3
2017-Jul-16 12:00N 33°40' W 121°31'917.4
2017-Jul-16 11:30N 33°40' W 121°20'917.7
2017-Jul-16 11:00N 33°40' W 121°09'917.7
2017-Jul-16 10:31N 33°39' W 120°59'917.8
2017-Jul-16 10:01N 33°40' W 120°48'918.0
2017-Jul-16 09:30N 33°40' W 120°37'918.1
2017-Jul-16 09:00N 33°40' W 120°26'918.1
2017-Jul-16 08:31N 33°39' W 120°16'918.4
2017-Jul-16 08:01N 33°39' W 120°05'918.7
2017-Jul-16 07:30N 33°39' W 119°53'918.7
2017-Jul-16 07:01N 33°39' W 119°42'1019.4
2017-Jul-16 06:31N 33°39' W 119°30'1018.9
2017-Jul-16 05:59N 33°39' W 119°19'917.7
2017-Jul-16 05:30N 33°39' W 119°09'612.6
2017-Jul-16 05:00N 33°38' W 119°01'611.6
2017-Jul-16 04:31N 33°38' W 118°54'611.5
2017-Jul-16 04:00N 33°38' W 118°47'510.3
2017-Jul-16 03:30N 33°39' W 118°41'510.3
2017-Jul-16 03:01N 33°38' W 118°35'5 9.7
2017-Jul-16 02:30N 33°38' W 118°29'5 9.9
2017-Jul-16 02:01N 33°38' W 118°23'5 9.6
2017-Jul-16 01:30N 33°38' W 118°17'4 8.7
2017-Jul-16 01:01N 33°42' W 118°15'3 5.5
2017-Jul-16 00:31N 33°45' W 118°16'2 3.0
2017-Jul-16 00:00N 33°46' W 118°15'0 0.0
2017-Jul-15 23:30N 33°46' W 118°15'0 0.0
2017-Jul-15 23:00N 33°46' W 118°15'0 0.0
2017-Jul-15 22:30N 33°46' W 118°15'0 0.0
2017-Jul-15 22:00N 33°46' W 118°15'0 0.0
2017-Jul-15 21:30N 33°46' W 118°15'0 0.0
2017-Jul-15 20:54N 33°46' W 118°15'0 0.0
2017-Jul-15 20:30N 33°46' W 118°15'0 0.0
2017-Jul-15 20:00N 33°46' W 118°15'0 0.0
2017-Jul-15 19:30N 33°46' W 118°15'0 0.0
2017-Jul-15 19:00N 33°46' W 118°15'0 0.0
2017-Jul-15 18:27N 33°46' W 118°15'0 0.0
2017-Jul-15 18:00N 33°46' W 118°15'0 0.0
2017-Jul-15 17:30N 33°46' W 118°15'0 0.0
2017-Jul-15 17:00N 33°46' W 118°15'0 0.0
2017-Jul-15 16:30N 33°46' W 118°15'0 0.0
2017-Jul-15 16:00N 33°46' W 118°15'0 0.0
2017-Jul-15 15:24N 33°46' W 118°15'0 0.0
2017-Jul-15 15:00N 33°46' W 118°15'0 0.0
2017-Jul-15 13:48N 33°46' W 118°15'0 0.0
2017-Jul-15 13:30N 33°46' W 118°15'0 0.0
2017-Jul-15 12:57N 33°46' W 118°15'0 0.0
2017-Jul-15 12:30N 33°46' W 118°15'0 0.0
2017-Jul-15 12:00N 33°46' W 118°15'0 0.0
2017-Jul-15 11:30N 33°46' W 118°15'0 0.0
2017-Jul-15 11:00N 33°46' W 118°15'0 0.0
2017-Jul-15 10:30N 33°46' W 118°15'0 0.0
2017-Jul-15 10:00N 33°46' W 118°15'0 0.0
2017-Jul-15 09:30N 33°46' W 118°15'0 0.0
2017-Jul-15 09:00N 33°46' W 118°15'0 0.0
2017-Jul-15 08:30N 33°46' W 118°15'0 0.0
2017-Jul-15 08:00N 33°46' W 118°15'0 0.0
2017-Jul-15 07:30N 33°46' W 118°15'0 0.0
2017-Jul-15 07:00N 33°46' W 118°15'0 0.0
2017-Jul-15 06:30N 33°46' W 118°15'0 0.0
2017-Jul-15 06:00N 33°46' W 118°15'0 0.0
2017-Jul-15 05:30N 33°46' W 118°15'0 0.0
2017-Jul-15 05:00N 33°46' W 118°15'0 0.4
2017-Jul-15 04:30N 33°46' W 118°15'2 3.9
2017-Jul-15 04:00N 33°44' W 118°17'4 8.1
2017-Jul-15 03:30N 33°41' W 118°14'3 6.8
2017-Jul-15 03:00N 33°37' W 118°15'3 5.6
2017-Jul-15 02:30N 33°36' W 118°18'3 6.5
2017-Jul-15 02:00N 33°36' W 118°21'3 6.0
2017-Jul-15 01:30N 33°36' W 118°25'3 6.3
2017-Jul-15 01:00N 33°36' W 118°29'3 6.4
2017-Jul-15 00:30N 33°36' W 118°33'3 6.3
2017-Jul-15 00:00N 33°37' W 118°36'3 6.0
2017-Jul-14 23:30N 33°37' W 118°40'3 6.4
2017-Jul-14 23:00N 33°37' W 118°44'4 7.1
2017-Jul-14 22:30N 33°37' W 118°48'3 6.9
2017-Jul-14 22:00N 33°37' W 118°52'3 7.0
2017-Jul-14 21:30N 33°37' W 118°57'5 9.6
2017-Jul-14 21:00N 33°37' W 119°02'510.4
2017-Jul-14 20:30N 33°38' W 119°09'5 9.8
2017-Jul-14 20:00N 33°38' W 119°14'5 9.6
2017-Jul-14 19:29N 33°37' W 119°20'4 9.0
2017-Jul-14 19:00N 33°37' W 119°26'3 6.9
2017-Jul-14 18:30N 33°37' W 119°30'3 6.8
2017-Jul-14 18:00N 33°37' W 119°34'510.6
2017-Jul-14 17:30N 33°37' W 119°40'612.7
2017-Jul-14 17:00N 33°38' W 119°48'612.5
2017-Jul-14 16:30N 33°38' W 119°55'3 6.0
2017-Jul-14 16:00N 33°38' W 119°59'612.7
2017-Jul-14 15:30N 33°38' W 120°07'612.7
2017-Jul-14 15:00N 33°38' W 120°14'612.6
2017-Jul-14 14:30N 33°38' W 120°22'612.8
2017-Jul-14 14:00N 33°38' W 120°29'612.9
2017-Jul-14 13:30N 33°38' W 120°37'612.9
2017-Jul-14 13:00N 33°38' W 120°45'612.8
2017-Jul-14 12:30N 33°39' W 120°53'713.2
2017-Jul-14 12:00N 33°39' W 121°01'713.0
2017-Jul-14 11:30N 33°39' W 121°08'613.0
2017-Jul-14 11:00N 33°39' W 121°16'713.1
2017-Jul-14 10:30N 33°39' W 121°24'713.1
2017-Jul-14 10:00N 33°39' W 121°32'713.2
2017-Jul-14 09:30N 33°39' W 121°40'713.3
2017-Jul-14 09:00N 33°40' W 121°48'613.1
2017-Jul-14 08:30N 33°40' W 121°56'713.1
2017-Jul-14 08:00N 33°40' W 122°04'713.5
2017-Jul-14 07:30N 33°40' W 122°12'713.5
2017-Jul-14 07:00N 33°40' W 122°20'713.5
2017-Jul-14 06:30N 33°40' W 122°28'714.0
2017-Jul-14 06:00N 33°40' W 122°36'713.4
2017-Jul-14 05:30N 33°40' W 122°44'713.5
2017-Jul-14 04:59N 33°40' W 122°53'713.3
2017-Jul-14 04:27N 33°40' W 123°01'713.2
2017-Jul-14 03:56N 33°41' W 123°09'613.3
2017-Jul-14 03:29N 33°41' W 123°17'2613.1
2017-Jul-14 01:30N 33°41' W 123°48'  
Track history (hours):
 
Tides and Currents Weather Stations Pressure Air Temp Water Temp Dewpoint Dewpoint Depression Visibility Wind Speed Wind Dir Waves Ship Positions

Jupiter Spirit

Last reported at 2017-Jul-17 08:26 UTC. Time now 2017-Jul-24 00:30 UTC.
Position N 35°33' W 127°45'.

Length 183 m; draft 7.6 m.

Type: Cargo ship. MMSI: 636015173.

Date/timePositionNaut miles runAvg speedWind from/ knotsBaromVisibWave heightAir tempDewpointWater temp
2017-Jul-17 08:26N 35°33' W 127°45'717.1
2017-Jul-17 08:00N 35°29' W 127°38'917.0
2017-Jul-17 07:30N 35°24' W 127°29'816.9
2017-Jul-17 07:00N 35°19' W 127°21'2117.0
2017-Jul-17 05:47N 35°08' W 126°59'516.7
2017-Jul-17 05:30N 35°05' W 126°55'1416.7
2017-Jul-17 04:41N 34°57' W 126°41'316.5
2017-Jul-17 04:30N 34°56' W 126°38'816.7
2017-Jul-17 04:00N 34°51' W 126°30'816.5
2017-Jul-17 03:30N 34°47' W 126°21'1016.2
2017-Jul-17 02:52N 34°41' W 126°11'616.4
2017-Jul-17 02:30N 34°38' W 126°05'816.3
2017-Jul-17 02:00N 34°33' W 125°57'816.4
2017-Jul-17 01:30N 34°28' W 125°48'816.3
2017-Jul-17 01:00N 34°23' W 125°40'816.4
2017-Jul-17 00:30N 34°19' W 125°32'816.3
2017-Jul-17 00:00N 34°14' W 125°25'816.7
2017-Jul-16 23:31N 34°09' W 125°16'816.7
2017-Jul-16 23:00N 34°04' W 125°08'816.6
2017-Jul-16 22:30N 33°59' W 124°60'817.0
2017-Jul-16 22:00N 33°55' W 124°51'816.9
2017-Jul-16 21:31N 33°51' W 124°42'917.0
2017-Jul-16 21:01N 33°48' W 124°33'817.0
2017-Jul-16 20:30N 33°45' W 124°23'816.9
2017-Jul-16 20:00N 33°43' W 124°13'816.9
2017-Jul-16 19:30N 33°42' W 124°03'817.0
2017-Jul-16 19:00N 33°42' W 123°53'817.0
2017-Jul-16 18:30N 33°42' W 123°43'817.0
2017-Jul-16 18:00N 33°41' W 123°33'917.3
2017-Jul-16 17:30N 33°41' W 123°22'917.2
2017-Jul-16 17:00N 33°41' W 123°12'817.0
2017-Jul-16 16:30N 33°41' W 123°02'917.2
2017-Jul-16 16:01N 33°41' W 122°51'816.7
2017-Jul-16 15:30N 33°41' W 122°41'816.7
2017-Jul-16 15:01N 33°40' W 122°31'816.7
2017-Jul-16 14:31N 33°40' W 122°21'816.8
2017-Jul-16 14:01N 33°40' W 122°11'816.6
2017-Jul-16 13:30N 33°41' W 122°01'816.7
2017-Jul-16 13:00N 33°40' W 121°51'917.2
2017-Jul-16 12:30N 33°40' W 121°41'917.3
2017-Jul-16 12:00N 33°40' W 121°31'917.4
2017-Jul-16 11:30N 33°40' W 121°20'917.7
2017-Jul-16 11:00N 33°40' W 121°09'917.7
2017-Jul-16 10:31N 33°39' W 120°59'917.8
2017-Jul-16 10:01N 33°40' W 120°48'918.0
2017-Jul-16 09:30N 33°40' W 120°37'918.1
2017-Jul-16 09:00N 33°40' W 120°26'918.1
2017-Jul-16 08:31N 33°39' W 120°16'918.4
2017-Jul-16 08:01N 33°39' W 120°05'918.7
2017-Jul-16 07:30N 33°39' W 119°53'918.7
2017-Jul-16 07:01N 33°39' W 119°42'1019.4
2017-Jul-16 06:31N 33°39' W 119°30'1018.9
2017-Jul-16 05:59N 33°39' W 119°19'917.7
2017-Jul-16 05:30N 33°39' W 119°09'612.6
2017-Jul-16 05:00N 33°38' W 119°01'611.6
2017-Jul-16 04:31N 33°38' W 118°54'611.5
2017-Jul-16 04:00N 33°38' W 118°47'510.3
2017-Jul-16 03:30N 33°39' W 118°41'510.3
2017-Jul-16 03:01N 33°38' W 118°35'5 9.7
2017-Jul-16 02:30N 33°38' W 118°29'5 9.9
2017-Jul-16 02:01N 33°38' W 118°23'5 9.6
2017-Jul-16 01:30N 33°38' W 118°17'4 8.7
2017-Jul-16 01:01N 33°42' W 118°15'3 5.5
2017-Jul-16 00:31N 33°45' W 118°16'2 3.0
2017-Jul-16 00:00N 33°46' W 118°15'0 0.0
2017-Jul-15 23:30N 33°46' W 118°15'0 0.0
2017-Jul-15 23:00N 33°46' W 118°15'0 0.0
2017-Jul-15 22:30N 33°46' W 118°15'0 0.0
2017-Jul-15 22:00N 33°46' W 118°15'0 0.0
2017-Jul-15 21:30N 33°46' W 118°15'0 0.0
2017-Jul-15 20:54N 33°46' W 118°15'0 0.0
2017-Jul-15 20:30N 33°46' W 118°15'0 0.0
2017-Jul-15 20:00N 33°46' W 118°15'0 0.0
2017-Jul-15 19:30N 33°46' W 118°15'0 0.0
2017-Jul-15 19:00N 33°46' W 118°15'0 0.0
2017-Jul-15 18:27N 33°46' W 118°15'0 0.0
2017-Jul-15 18:00N 33°46' W 118°15'0 0.0
2017-Jul-15 17:30N 33°46' W 118°15'0 0.0
2017-Jul-15 17:00N 33°46' W 118°15'0 0.0
2017-Jul-15 16:30N 33°46' W 118°15'0 0.0
2017-Jul-15 16:00N 33°46' W 118°15'0 0.0
2017-Jul-15 15:24N 33°46' W 118°15'0 0.0
2017-Jul-15 15:00N 33°46' W 118°15'0 0.0
2017-Jul-15 13:48N 33°46' W 118°15'0 0.0
2017-Jul-15 13:30N 33°46' W 118°15'0 0.0
2017-Jul-15 12:57N 33°46' W 118°15'0 0.0
2017-Jul-15 12:30N 33°46' W 118°15'0 0.0
2017-Jul-15 12:00N 33°46' W 118°15'0 0.0
2017-Jul-15 11:30N 33°46' W 118°15'0 0.0
2017-Jul-15 11:00N 33°46' W 118°15'0 0.0
2017-Jul-15 10:30N 33°46' W 118°15'0 0.0
2017-Jul-15 10:00N 33°46' W 118°15'0 0.0
2017-Jul-15 09:30N 33°46' W 118°15'0 0.0
2017-Jul-15 09:00N 33°46' W 118°15'0 0.0
2017-Jul-15 08:30N 33°46' W 118°15'0 0.0
2017-Jul-15 08:00N 33°46' W 118°15'0 0.0
2017-Jul-15 07:30N 33°46' W 118°15'0 0.0
2017-Jul-15 07:00N 33°46' W 118°15'0 0.0
2017-Jul-15 06:30N 33°46' W 118°15'0 0.0
2017-Jul-15 06:00N 33°46' W 118°15'0 0.0
2017-Jul-15 05:30N 33°46' W 118°15'0 0.0
2017-Jul-15 05:00N 33°46' W 118°15'0 0.4
2017-Jul-15 04:30N 33°46' W 118°15'2 3.9
2017-Jul-15 04:00N 33°44' W 118°17'4 8.1
2017-Jul-15 03:30N 33°41' W 118°14'3 6.8
2017-Jul-15 03:00N 33°37' W 118°15'3 5.6
2017-Jul-15 02:30N 33°36' W 118°18'3 6.5
2017-Jul-15 02:00N 33°36' W 118°21'3 6.0
2017-Jul-15 01:30N 33°36' W 118°25'3 6.3
2017-Jul-15 01:00N 33°36' W 118°29'3 6.4
2017-Jul-15 00:30N 33°36' W 118°33'3 6.3
2017-Jul-15 00:00N 33°37' W 118°36'3 6.0
2017-Jul-14 23:30N 33°37' W 118°40'3 6.4
2017-Jul-14 23:00N 33°37' W 118°44'4 7.1
2017-Jul-14 22:30N 33°37' W 118°48'3 6.9
2017-Jul-14 22:00N 33°37' W 118°52'3 7.0
2017-Jul-14 21:30N 33°37' W 118°57'5 9.6
2017-Jul-14 21:00N 33°37' W 119°02'510.4
2017-Jul-14 20:30N 33°38' W 119°09'5 9.8
2017-Jul-14 20:00N 33°38' W 119°14'5 9.6
2017-Jul-14 19:29N 33°37' W 119°20'4 9.0
2017-Jul-14 19:00N 33°37' W 119°26'3 6.9
2017-Jul-14 18:30N 33°37' W 119°30'3 6.8
2017-Jul-14 18:00N 33°37' W 119°34'510.6
2017-Jul-14 17:30N 33°37' W 119°40'612.7
2017-Jul-14 17:00N 33°38' W 119°48'612.5
2017-Jul-14 16:30N 33°38' W 119°55'3 6.0
2017-Jul-14 16:00N 33°38' W 119°59'612.7
2017-Jul-14 15:30N 33°38' W 120°07'612.7
2017-Jul-14 15:00N 33°38' W 120°14'612.6
2017-Jul-14 14:30N 33°38' W 120°22'612.8
2017-Jul-14 14:00N 33°38' W 120°29'612.9
2017-Jul-14 13:30N 33°38' W 120°37'612.9
2017-Jul-14 13:00N 33°38' W 120°45'612.8
2017-Jul-14 12:30N 33°39' W 120°53'713.2
2017-Jul-14 12:00N 33°39' W 121°01'713.0
2017-Jul-14 11:30N 33°39' W 121°08'613.0
2017-Jul-14 11:00N 33°39' W 121°16'713.1
2017-Jul-14 10:30N 33°39' W 121°24'713.1
2017-Jul-14 10:00N 33°39' W 121°32'713.2
2017-Jul-14 09:30N 33°39' W 121°40'713.3
2017-Jul-14 09:00N 33°40' W 121°48'613.1
2017-Jul-14 08:30N 33°40' W 121°56'713.1
2017-Jul-14 08:00N 33°40' W 122°04'713.5
2017-Jul-14 07:30N 33°40' W 122°12'713.5
2017-Jul-14 07:00N 33°40' W 122°20'713.5
2017-Jul-14 06:30N 33°40' W 122°28'714.0
2017-Jul-14 06:00N 33°40' W 122°36'713.4
2017-Jul-14 05:30N 33°40' W 122°44'713.5
2017-Jul-14 04:59N 33°40' W 122°53'713.3
2017-Jul-14 04:27N 33°40' W 123°01'713.2
2017-Jul-14 03:56N 33°41' W 123°09'613.3
2017-Jul-14 03:29N 33°41' W 123°17'2613.1
2017-Jul-14 01:30N 33°41' W 123°48'  

Dump ship's entire track history